createdAt,value
2019-03-29T00:00:37.556Z,73.31
2019-03-29T00:03:09.782Z,73.63
2019-03-29T00:05:42.050Z,74.24
2019-03-29T00:08:14.267Z,74.27
2019-03-29T00:10:47.051Z,74.36
2019-03-29T00:13:19.517Z,74.63
2019-03-29T00:15:51.817Z,74.87
2019-03-29T00:18:23.953Z,74.97
2019-03-29T00:20:56.074Z,74.79
2019-03-29T00:23:28.294Z,75.00
2019-03-29T00:26:00.587Z,75.16
2019-03-29T00:28:32.820Z,74.72
2019-03-29T00:31:04.958Z,74.61
2019-03-29T00:33:37.101Z,74.70
2019-03-29T00:36:09.311Z,74.57
2019-03-29T00:38:41.506Z,74.40
2019-03-29T00:41:13.704Z,74.01
2019-03-29T00:43:46.046Z,74.09
2019-03-29T00:46:18.180Z,73.80
2019-03-29T00:48:51.812Z,73.51
2019-03-29T00:51:24.806Z,73.43
2019-03-29T00:53:57.098Z,73.20
2019-03-29T00:56:29.231Z,72.84
2019-03-29T00:59:02.813Z,72.98
2019-03-29T01:01:34.939Z,72.91
2019-03-29T01:04:07.135Z,72.76
2019-03-29T01:06:39.493Z,72.68
2019-03-29T01:09:13.173Z,72.47
2019-03-29T01:11:46.828Z,72.83
2019-03-29T01:14:19.050Z,73.13
2019-03-29T01:16:51.839Z,73.51
2019-03-29T01:19:25.511Z,73.52
2019-03-29T01:21:57.733Z,73.22
2019-03-29T01:24:29.888Z,73.12
2019-03-29T01:27:02.105Z,73.44
2019-03-29T01:29:34.305Z,73.53
2019-03-29T01:32:07.116Z,73.31
2019-03-29T01:34:39.416Z,73.43
2019-03-29T01:37:11.550Z,73.09
2019-03-29T01:39:43.680Z,73.05
2019-03-29T01:42:15.823Z,73.19
2019-03-29T01:44:48.042Z,73.26
2019-03-29T01:47:20.270Z,73.19
2019-03-29T01:49:52.982Z,73.29
2019-03-29T01:52:25.455Z,73.20
2019-03-29T01:54:57.595Z,72.87
2019-03-29T01:57:29.736Z,72.25
2019-03-29T02:00:01.868Z,72.15
2019-03-29T02:02:35.779Z,72.06
2019-03-29T02:05:08.225Z,72.23
2019-03-29T02:07:40.365Z,72.30
2019-03-29T02:10:12.601Z,71.89
2019-03-29T02:12:44.803Z,71.54
2019-03-29T02:15:16.956Z,70.79
2019-03-29T02:17:49.208Z,70.13
2019-03-29T02:20:21.799Z,69.39
2019-03-29T02:22:54.011Z,69.60
2019-03-29T02:25:26.210Z,69.91
2019-03-29T02:27:58.366Z,68.54
2019-03-29T02:30:31.925Z,68.38
2019-03-29T02:33:04.464Z,67.59
2019-03-29T02:35:38.502Z,67.53
2019-03-29T02:38:10.485Z,67.45
2019-03-29T02:40:42.678Z,66.54
2019-03-29T02:43:14.829Z,65.48
2019-03-29T02:45:47.064Z,65.75
2019-03-29T02:48:19.278Z,65.75
2019-03-29T02:50:51.398Z,64.96
2019-03-29T02:53:23.612Z,65.12
2019-03-29T02:55:56.076Z,64.53
2019-03-29T02:58:28.292Z,64.92
2019-03-29T03:01:00.436Z,63.84
2019-03-29T03:03:32.645Z,63.16
2019-03-29T03:06:04.779Z,62.68
2019-03-29T03:08:36.912Z,63.29
2019-03-29T03:11:09.130Z,62.98
2019-03-29T03:13:41.348Z,62.30
2019-03-29T03:16:13.488Z,62.65
2019-03-29T03:18:45.690Z,62.42
2019-03-29T03:21:17.834Z,62.75
2019-03-29T03:23:49.976Z,63.13
2019-03-29T03:26:22.424Z,62.62
2019-03-29T03:28:54.620Z,62.73
2019-03-29T03:31:26.871Z,63.05
2019-03-29T03:33:59.127Z,62.65
2019-03-29T03:36:31.389Z,62.53
2019-03-29T03:39:04.013Z,62.40
2019-03-29T03:41:36.184Z,62.38
2019-03-29T03:44:08.377Z,62.73
2019-03-29T03:46:40.533Z,63.03
2019-03-29T03:49:12.669Z,62.98
2019-03-29T03:51:44.893Z,63.46
2019-03-29T03:54:17.031Z,63.84
2019-03-29T03:56:49.302Z,63.83
2019-03-29T03:59:21.474Z,64.01
2019-03-29T04:01:53.640Z,64.23
2019-03-29T04:04:26.105Z,64.61
2019-03-29T04:06:58.305Z,64.88
2019-03-29T04:09:48.043Z,65.32
2019-03-29T04:12:04.343Z,65.86
2019-03-29T04:14:36.465Z,66.18
2019-03-29T04:17:08.707Z,66.50
2019-03-29T04:19:40.799Z,67.20
2019-03-29T04:22:12.934Z,67.48
2019-03-29T04:24:45.051Z,67.94
2019-03-29T04:27:17.211Z,67.96
2019-03-29T04:29:49.406Z,68.46
2019-03-29T04:32:21.544Z,68.50
2019-03-29T04:34:53.679Z,68.70
2019-03-29T04:37:26.151Z,68.56
2019-03-29T04:40:06.971Z,68.73
2019-03-29T04:42:32.101Z,69.12
2019-03-29T04:45:04.265Z,69.32
2019-03-29T04:47:36.501Z,69.70
2019-03-29T04:50:08.793Z,70.02
2019-03-29T04:52:41.048Z,70.09
2019-03-29T04:55:13.179Z,69.96
2019-03-29T04:57:45.384Z,70.08
2019-03-29T05:00:17.525Z,70.46
2019-03-29T05:02:49.729Z,70.42
2019-03-29T05:05:21.863Z,70.47
2019-03-29T05:07:53.999Z,70.90
2019-03-29T05:10:26.615Z,70.96
2019-03-29T05:12:59.715Z,70.84
2019-03-29T05:15:31.974Z,71.11
2019-03-29T05:18:04.104Z,71.35
2019-03-29T05:20:36.245Z,71.57
2019-03-29T05:23:08.479Z,71.76
2019-03-29T05:25:40.717Z,71.59
2019-03-29T05:28:12.855Z,71.83
2019-03-29T05:30:44.991Z,71.83
2019-03-29T05:33:18.209Z,71.93
2019-03-29T05:35:50.376Z,71.68
2019-03-29T05:38:22.519Z,72.02
2019-03-29T05:40:54.663Z,72.19
2019-03-29T05:43:26.811Z,72.32
2019-03-29T05:45:59.073Z,72.50
2019-03-29T05:48:31.222Z,72.52
2019-03-29T05:51:03.443Z,73.46
2019-03-29T05:53:35.569Z,73.25
2019-03-29T05:56:07.718Z,73.21
2019-03-29T05:58:39.841Z,73.21
2019-03-29T06:01:12.054Z,73.50
2019-03-29T06:03:44.197Z,73.36
2019-03-29T06:06:16.319Z,73.43
2019-03-29T06:08:48.541Z,73.50
2019-03-29T06:11:20.696Z,73.77
2019-03-29T06:13:52.851Z,73.86
2019-03-29T06:16:38.372Z,73.91
2019-03-29T06:18:59.254Z,73.87
2019-03-29T06:21:31.405Z,74.16
2019-03-29T06:24:03.557Z,73.97
2019-03-29T06:26:35.766Z,74.18
2019-03-29T06:29:07.900Z,73.86
2019-03-29T06:31:40.055Z,72.78
2019-03-29T06:34:12.216Z,72.93
2019-03-29T06:36:44.366Z,72.89
2019-03-29T06:39:16.502Z,72.63
2019-03-29T06:41:48.649Z,72.44
2019-03-29T06:44:20.828Z,72.61
2019-03-29T06:46:53.259Z,72.25
2019-03-29T06:49:26.687Z,71.84
2019-03-29T06:51:59.227Z,72.36
2019-03-29T06:54:31.398Z,71.31
2019-03-29T06:57:03.564Z,71.53
2019-03-29T06:59:35.732Z,70.98
2019-03-29T07:02:07.870Z,69.78
2019-03-29T07:04:40.021Z,69.53
2019-03-29T07:07:12.140Z,68.11
2019-03-29T07:09:44.360Z,66.27
2019-03-29T07:12:16.500Z,66.08
2019-03-29T07:14:48.656Z,66.39
2019-03-29T07:17:20.819Z,64.35
2019-03-29T07:19:53.151Z,64.54
2019-03-29T07:22:25.494Z,63.83
2019-03-29T07:24:57.643Z,63.80
2019-03-29T07:27:43.507Z,62.01
2019-03-29T07:30:03.718Z,62.36
2019-03-29T07:32:35.958Z,61.41
2019-03-29T07:35:08.091Z,60.96
2019-03-29T07:37:40.404Z,61.17
2019-03-29T07:40:12.550Z,61.06
2019-03-29T07:42:44.770Z,61.25
2019-03-29T07:45:16.915Z,60.97
2019-03-29T07:47:49.124Z,59.53
2019-03-29T07:50:21.349Z,58.81
2019-03-29T07:52:53.669Z,58.87
2019-03-29T07:55:26.151Z,59.80
2019-03-29T07:57:58.371Z,57.46
2019-03-29T08:00:32.679Z,57.50
2019-03-29T08:03:04.817Z,57.10
2019-03-29T08:05:36.980Z,56.08
2019-03-29T08:08:22.850Z,56.04
2019-03-29T08:10:43.039Z,56.22
2019-03-29T08:13:16.100Z,56.54
2019-03-29T08:15:49.640Z,56.36
2019-03-29T08:18:21.886Z,56.43
2019-03-29T08:20:54.097Z,57.11
2019-03-29T08:23:28.815Z,57.40
2019-03-29T08:26:00.524Z,57.85
2019-03-29T08:28:33.741Z,57.14
2019-03-29T08:31:05.987Z,56.29
2019-03-29T08:33:38.194Z,56.49
2019-03-29T08:36:10.397Z,56.61
2019-03-29T08:38:42.603Z,56.92
2019-03-29T08:41:14.744Z,57.29
2019-03-29T08:43:46.966Z,57.71
2019-03-29T08:46:19.179Z,57.17
2019-03-29T08:48:51.398Z,57.38
2019-03-29T08:51:23.696Z,56.84
2019-03-29T08:53:56.148Z,55.97
2019-03-29T08:56:28.328Z,55.87
2019-03-29T08:59:00.565Z,56.39
2019-03-29T09:01:34.095Z,55.95
2019-03-29T09:04:06.359Z,55.89
2019-03-29T09:06:53.385Z,56.62
2019-03-29T09:09:21.399Z,56.19
2019-03-29T09:11:54.619Z,56.03
2019-03-29T09:14:27.012Z,56.19
2019-03-29T09:17:01.216Z,56.06
2019-03-29T09:19:38.221Z,55.56
2019-03-29T09:22:11.134Z,55.54
2019-03-29T09:24:43.327Z,56.38
2019-03-29T09:27:15.623Z,56.00
2019-03-29T09:29:49.221Z,55.84
2019-03-29T09:32:21.577Z,56.18
2019-03-29T09:34:54.153Z,56.37
2019-03-29T09:37:26.758Z,56.00
2019-03-29T09:40:00.413Z,56.24
2019-03-29T09:42:32.855Z,56.68
2019-03-29T09:45:05.417Z,56.27
2019-03-29T09:47:40.545Z,56.01
2019-03-29T09:50:11.996Z,55.73
2019-03-29T09:52:44.406Z,56.44
2019-03-29T09:55:19.010Z,55.49
2019-03-29T09:57:51.828Z,55.38
2019-03-29T10:00:24.321Z,55.50
2019-03-29T10:02:56.919Z,55.42
2019-03-29T10:05:31.336Z,55.23
2019-03-29T10:08:03.222Z,55.29
2019-03-29T10:10:35.777Z,55.82
2019-03-29T10:13:08.211Z,55.88
2019-03-29T10:15:40.570Z,56.17
2019-03-29T10:18:12.935Z,56.72
2019-03-29T10:20:45.252Z,56.32
2019-03-29T10:23:17.530Z,56.33
2019-03-29T10:25:52.159Z,55.93
2019-03-29T10:28:24.814Z,56.22
2019-03-29T10:30:57.299Z,56.58
2019-03-29T10:33:29.561Z,56.61
2019-03-29T10:36:02.167Z,56.72
2019-03-29T10:38:34.526Z,56.67
2019-03-29T10:41:08.011Z,56.20
2019-03-29T10:43:40.477Z,56.57
2019-03-29T10:46:12.872Z,55.68
2019-03-29T10:48:45.527Z,55.56
2019-03-29T10:51:18.138Z,55.05
2019-03-29T10:53:51.355Z,54.71
2019-03-29T10:56:34.013Z,55.20
2019-03-29T10:58:57.848Z,55.07
2019-03-29T11:01:31.742Z,55.60
2019-03-29T11:04:04.725Z,54.14
2019-03-29T11:06:37.174Z,54.44
2019-03-29T11:09:09.701Z,53.75
2019-03-29T11:11:42.200Z,53.04
2019-03-29T11:14:14.754Z,53.10
2019-03-29T11:16:47.151Z,54.41
2019-03-29T11:19:20.705Z,53.43
2019-03-29T11:21:54.025Z,53.63
2019-03-29T11:24:26.745Z,53.17
2019-03-29T11:26:59.201Z,52.50
2019-03-29T11:29:31.438Z,53.13
2019-03-29T11:32:03.883Z,52.69
2019-03-29T11:34:36.337Z,53.63
2019-03-29T11:37:08.666Z,52.58
2019-03-29T11:39:41.162Z,53.47
2019-03-29T11:44:44.416Z,53.20
2019-03-29T11:47:16.943Z,53.16
2019-03-29T11:49:52.843Z,52.75
2019-03-29T11:52:24.611Z,52.76
2019-03-29T11:54:57.047Z,52.75
2019-03-29T11:57:31.059Z,53.06
2019-03-29T12:00:03.918Z,52.93
2019-03-29T12:02:36.465Z,52.86
2019-03-29T12:05:10.055Z,53.05
2019-03-29T12:07:42.644Z,53.49
2019-03-29T12:10:16.030Z,53.10
2019-03-29T12:12:48.416Z,52.82
2019-03-29T12:15:21.137Z,53.45
2019-03-29T12:17:54.105Z,52.23
2019-03-29T12:20:33.312Z,51.89
2019-03-29T12:23:11.659Z,51.46
2019-03-29T12:25:46.363Z,50.72
2019-03-29T12:28:19.562Z,50.92
2019-03-29T12:30:52.012Z,50.40
2019-03-29T12:33:24.534Z,50.87
2019-03-29T12:35:56.902Z,50.93
2019-03-29T12:38:29.495Z,50.64
2019-03-29T12:41:02.174Z,50.21
2019-03-29T12:43:34.935Z,50.21
2019-03-29T12:46:07.444Z,51.85
2019-03-29T12:48:41.862Z,51.18
2019-03-29T12:51:15.702Z,50.99
2019-03-29T12:53:48.421Z,50.54
2019-03-29T12:56:20.788Z,50.41
2019-03-29T12:58:53.798Z,50.08
2019-03-29T13:01:38.608Z,49.45
2019-03-29T13:04:01.388Z,49.56
2019-03-29T13:06:33.927Z,50.29
2019-03-29T13:09:07.259Z,50.48
2019-03-29T13:11:40.127Z,50.50
2019-03-29T13:14:12.973Z,51.21
2019-03-29T13:16:45.943Z,51.67
2019-03-29T13:19:19.682Z,52.00
2019-03-29T13:21:52.704Z,51.76
2019-03-29T13:24:25.126Z,51.91
2019-03-29T13:26:57.364Z,52.51
2019-03-29T13:29:29.641Z,52.51
2019-03-29T13:32:01.898Z,53.66
2019-03-29T13:34:34.319Z,53.66
2019-03-29T13:37:06.805Z,53.05
2019-03-29T13:39:39.194Z,52.93
2019-03-29T13:42:11.424Z,53.67
2019-03-29T13:44:43.596Z,53.85
2019-03-29T13:47:17.895Z,53.85
2019-03-29T13:49:49.908Z,54.08
2019-03-29T13:52:22.056Z,53.81
2019-03-29T13:54:54.574Z,53.79
2019-03-29T13:57:26.922Z,53.98
2019-03-29T13:59:59.476Z,54.05
2019-03-29T14:02:31.678Z,53.85
2019-03-29T14:05:03.864Z,54.51
2019-03-29T14:07:36.099Z,54.58
2019-03-29T14:10:08.848Z,54.67
2019-03-29T14:12:41.138Z,54.59
2019-03-29T14:15:13.675Z,54.57
2019-03-29T14:17:46.359Z,54.37
2019-03-29T14:20:32.088Z,54.54
2019-03-29T14:23:05.272Z,54.80
2019-03-29T14:25:37.573Z,54.41
2019-03-29T14:28:12.192Z,54.78
2019-03-29T14:30:44.438Z,54.76
2019-03-29T14:33:16.750Z,54.44
2019-03-29T14:35:48.987Z,54.90
2019-03-29T14:38:21.231Z,54.90
2019-03-29T14:40:54.156Z,54.54
2019-03-29T14:43:26.904Z,54.26
2019-03-29T14:45:59.296Z,54.26
2019-03-29T14:48:31.539Z,54.96
2019-03-29T14:51:04.916Z,54.88
2019-03-29T14:53:38.706Z,54.15
2019-03-29T14:56:12.885Z,53.12
2019-03-29T14:58:45.083Z,52.86
2019-03-29T15:01:17.322Z,52.50
2019-03-29T15:03:49.536Z,52.75
2019-03-29T15:06:21.682Z,53.24
2019-03-29T15:08:54.033Z,53.02
2019-03-29T15:11:26.597Z,53.07
2019-03-29T15:13:59.863Z,53.18
2019-03-29T15:16:32.994Z,53.41
2019-03-29T15:19:05.225Z,52.73
2019-03-29T15:21:37.435Z,53.21
2019-03-29T15:24:10.812Z,53.64
2019-03-29T15:26:43.278Z,53.77
2019-03-29T15:29:15.429Z,54.38
2019-03-29T15:31:47.676Z,54.68
2019-03-29T15:34:19.901Z,54.50
2019-03-29T15:36:52.154Z,54.45
2019-03-29T15:39:24.399Z,55.22
2019-03-29T15:41:56.986Z,55.16
2019-03-29T15:44:29.467Z,55.44
2019-03-29T15:47:01.692Z,55.79
2019-03-29T15:49:33.907Z,56.15
2019-03-29T15:52:07.129Z,56.37
2019-03-29T15:54:39.469Z,56.40
2019-03-29T15:57:11.619Z,56.24
2019-03-29T15:59:43.781Z,56.03
2019-03-29T16:02:15.962Z,56.60
2019-03-29T16:04:48.136Z,56.57
2019-03-29T16:07:20.276Z,56.63
2019-03-29T16:09:52.840Z,55.90
2019-03-29T16:12:24.990Z,55.70
2019-03-29T16:14:57.155Z,55.56
2019-03-29T16:17:29.498Z,55.04
2019-03-29T16:20:01.726Z,55.29
2019-03-29T16:22:33.955Z,55.87
2019-03-29T16:25:06.516Z,56.33
2019-03-29T16:27:39.740Z,56.30
2019-03-29T16:30:11.885Z,55.50
2019-03-29T16:32:44.320Z,55.88
2019-03-29T16:35:16.533Z,56.28
2019-03-29T16:37:56.984Z,56.74
2019-03-29T16:40:22.812Z,56.90
2019-03-29T16:42:55.044Z,57.00
2019-03-29T16:45:27.286Z,57.15
2019-03-29T16:47:59.443Z,57.01
2019-03-29T16:50:32.600Z,57.08
2019-03-29T16:53:04.761Z,56.29
2019-03-29T16:55:37.005Z,56.69
2019-03-29T16:58:09.258Z,56.86
2019-03-29T17:00:41.575Z,56.80
2019-03-29T17:03:13.928Z,56.54
2019-03-29T17:05:46.074Z,56.99
2019-03-29T17:08:18.243Z,57.22
2019-03-29T17:10:50.399Z,57.25
2019-03-29T17:13:22.823Z,57.33
2019-03-29T17:16:01.811Z,57.59
2019-03-29T17:18:29.765Z,57.42
2019-03-29T17:21:02.032Z,57.69
2019-03-29T17:23:34.383Z,58.00
2019-03-29T17:26:06.532Z,58.20
2019-03-29T17:28:38.750Z,57.76
2019-03-29T17:31:12.258Z,57.96
2019-03-29T17:33:44.480Z,58.20
2019-03-29T17:36:16.670Z,57.88
2019-03-29T17:38:48.920Z,57.60
2019-03-29T17:41:21.073Z,57.79
2019-03-29T17:43:53.233Z,57.64
2019-03-29T17:46:25.786Z,57.53
2019-03-29T17:48:58.104Z,57.52
2019-03-29T17:51:30.327Z,57.90
2019-03-29T17:54:02.489Z,57.62
2019-03-29T17:56:34.730Z,57.76
2019-03-29T17:59:06.988Z,58.20
2019-03-29T18:01:39.568Z,58.37
2019-03-29T18:04:11.966Z,58.24
2019-03-29T18:06:46.868Z,58.20
2019-03-29T18:09:18.243Z,58.05
2019-03-29T18:11:50.664Z,58.25
2019-03-29T18:14:22.853Z,58.24
2019-03-29T18:16:55.179Z,58.07
2019-03-29T18:19:27.415Z,58.51
2019-03-29T18:21:59.572Z,58.83
2019-03-29T18:24:31.811Z,58.82
2019-03-29T18:27:04.053Z,58.87
2019-03-29T18:29:36.356Z,59.12
2019-03-29T18:32:08.684Z,59.10
2019-03-29T18:34:41.739Z,59.48
2019-03-29T18:37:14.557Z,59.52
2019-03-29T18:39:47.149Z,59.40
2019-03-29T18:42:19.468Z,59.41
2019-03-29T18:44:51.609Z,59.45
2019-03-29T18:47:24.072Z,59.13
2019-03-29T18:49:56.524Z,59.09
2019-03-29T18:52:28.745Z,59.28
2019-03-29T18:55:00.963Z,59.61
2019-03-29T18:57:33.178Z,59.47
2019-03-29T19:00:07.331Z,59.56
2019-03-29T19:02:39.657Z,59.66
2019-03-29T19:05:16.714Z,59.62
2019-03-29T19:07:49.039Z,59.32
2019-03-29T19:10:21.283Z,59.40
2019-03-29T19:12:54.057Z,59.46
2019-03-29T19:15:27.053Z,59.52
2019-03-29T19:17:59.493Z,59.66
2019-03-29T19:20:31.708Z,59.01
2019-03-29T19:23:03.865Z,59.35
2019-03-29T19:25:36.042Z,59.32
2019-03-29T19:28:08.198Z,59.29
2019-03-29T19:30:40.423Z,59.07
2019-03-29T19:33:12.654Z,59.48
2019-03-29T19:35:44.921Z,59.68
2019-03-29T19:38:18.134Z,59.75
2019-03-29T19:40:50.338Z,59.77
2019-03-29T19:43:22.840Z,59.73
2019-03-29T19:45:55.066Z,59.74
2019-03-29T19:48:27.234Z,59.88
2019-03-29T19:50:59.504Z,60.09
2019-03-29T19:53:34.243Z,60.02
2019-03-29T19:56:05.633Z,60.33
2019-03-29T19:58:37.944Z,60.44
2019-03-29T20:01:10.236Z,60.63
2019-03-29T20:03:42.538Z,60.48
2019-03-29T20:06:14.759Z,60.69
2019-03-29T20:08:47.879Z,60.96
2019-03-29T20:11:20.026Z,61.41
2019-03-29T20:13:52.171Z,61.65
2019-03-29T20:16:24.338Z,61.79
2019-03-29T20:18:56.691Z,61.67
2019-03-29T20:21:29.042Z,61.66
2019-03-29T20:24:01.210Z,61.76
2019-03-29T20:26:33.453Z,61.73
2019-03-29T20:29:05.682Z,61.92
2019-03-29T20:31:37.918Z,61.95
2019-03-29T20:34:10.143Z,61.81
2019-03-29T20:36:42.281Z,61.74
2019-03-29T20:39:14.512Z,61.71
2019-03-29T20:41:46.730Z,61.89
2019-03-29T20:44:19.065Z,61.91
2019-03-29T20:46:51.224Z,61.67
2019-03-29T20:49:23.605Z,61.57
2019-03-29T20:51:55.857Z,61.82
2019-03-29T20:54:28.080Z,61.42
2019-03-29T20:57:00.225Z,61.47
2019-03-29T20:59:32.363Z,61.55
2019-03-29T21:02:05.497Z,61.62
2019-03-29T21:04:37.733Z,61.56
2019-03-29T21:07:09.968Z,61.80
2019-03-29T21:09:42.178Z,61.65
2019-03-29T21:12:14.383Z,61.50
2019-03-29T21:14:46.604Z,61.70
2019-03-29T21:17:19.725Z,61.72
2019-03-29T21:19:52.944Z,61.53
2019-03-29T21:22:25.093Z,61.60
2019-03-29T21:24:57.311Z,61.71
2019-03-29T21:27:29.560Z,61.52
2019-03-29T21:30:01.707Z,61.67
2019-03-29T21:32:33.929Z,61.78
2019-03-29T21:35:06.878Z,61.79
2019-03-29T21:37:39.030Z,61.76
2019-03-29T21:40:11.265Z,61.65
2019-03-29T21:42:43.530Z,61.58
2019-03-29T21:45:28.027Z,61.68
2019-03-29T21:48:01.905Z,61.86
2019-03-29T21:50:24.151Z,61.94
2019-03-29T21:52:57.391Z,62.10
2019-03-29T21:55:29.619Z,62.30
2019-03-29T21:58:01.839Z,62.33
2019-03-29T22:00:34.071Z,62.25
2019-03-29T22:03:06.392Z,62.20
2019-03-29T22:05:38.617Z,62.29
2019-03-29T22:08:10.849Z,62.33
2019-03-29T22:10:43.071Z,62.52
2019-03-29T22:13:15.398Z,62.36
2019-03-29T22:15:47.555Z,62.35
2019-03-29T22:18:19.700Z,62.47
2019-03-29T22:20:51.948Z,62.60
2019-03-29T22:23:24.167Z,62.61
2019-03-29T22:25:56.619Z,62.79
2019-03-29T22:28:28.845Z,62.71
2019-03-29T22:31:00.997Z,62.93
2019-03-29T22:33:33.217Z,63.71
2019-03-29T22:36:05.439Z,64.03
2019-03-29T22:38:38.762Z,64.08
2019-03-29T22:41:10.985Z,64.07
2019-03-29T22:43:43.147Z,64.22
2019-03-29T22:46:15.304Z,64.62
2019-03-29T22:48:52.916Z,65.30
2019-03-29T22:51:21.436Z,65.54
2019-03-29T22:53:53.935Z,66.19
2019-03-29T22:56:26.099Z,66.38
2019-03-29T22:58:58.308Z,66.61
2019-03-29T23:01:30.643Z,66.58
2019-03-29T23:04:03.683Z,66.44
2019-03-29T23:06:36.002Z,67.25
2019-03-29T23:09:11.646Z,66.73
2019-03-29T23:11:42.407Z,65.97
2019-03-29T23:14:14.644Z,65.58
2019-03-29T23:16:47.234Z,66.08
2019-03-29T23:19:19.451Z,66.18
2019-03-29T23:21:51.601Z,66.15
2019-03-29T23:24:24.161Z,65.95
2019-03-29T23:26:56.615Z,66.29
2019-03-29T23:29:28.841Z,66.22
2019-03-29T23:32:01.147Z,66.10
2019-03-29T23:34:33.362Z,66.42
2019-03-29T23:37:05.601Z,66.93
2019-03-29T23:39:37.836Z,67.50
2019-03-29T23:42:10.070Z,67.67
2019-03-29T23:44:42.295Z,67.65
2019-03-29T23:47:14.613Z,67.97
2019-03-29T23:49:47.186Z,68.14
2019-03-29T23:52:19.418Z,68.26
2019-03-29T23:54:51.809Z,68.30
2019-03-29T23:57:24.212Z,67.85
2019-03-29T23:59:56.554Z,67.89
